Time;durP1;ratioP1;P1;durP2;ratioP2;P2;SDS_P1;SDS_P2;PMS_P1;PMS_P2;Temp;Humidity;BMP_temperature;BMP_pressure;BME280_temperature;BME280_humidity;BME280_pressure;Samples;Min_cycle;Max_cycle;Signal;HPM_P1;HPM_P2
2022/04/19 00:00:20;;;;;;;50.63;27.53;;;10.40;99.90;;;;;;5042212;28;20212;-70
2022/04/19 00:02:49;;;;;;;48.70;28.07;;;10.40;99.90;;;;;;5046508;28;20197;-70
2022/04/19 00:05:17;;;;;;;53.93;28.33;;;10.40;99.90;;;;;;5041027;28;20192;-70
2022/04/19 00:07:45;;;;;;;50.03;28.23;;;10.40;99.90;;;;;;5043683;28;20193;-69
2022/04/19 00:10:14;;;;;;;57.13;29.77;;;10.30;99.90;;;;;;5044763;28;20184;-69
2022/04/19 00:12:43;;;;;;;50.80;27.80;;;10.30;99.90;;;;;;5043485;28;20200;-69
2022/04/19 00:15:13;;;;;;;52.17;29.17;;;10.40;99.90;;;;;;5043088;28;20203;-69
2022/04/19 00:17:41;;;;;;;56.07;30.13;;;10.30;99.90;;;;;;5044838;28;20280;-69
2022/04/19 00:20:10;;;;;;;47.67;28.70;;;10.40;99.90;;;;;;5045177;28;20463;-69
2022/04/19 00:22:41;;;;;;;59.03;30.00;;;10.30;99.90;;;;;;5041114;28;20727;-69
2022/04/19 00:25:10;;;;;;;58.17;31.10;;;10.30;99.90;;;;;;5043915;28;20310;-69
2022/04/19 00:27:38;;;;;;;54.40;29.57;;;10.30;99.90;;;;;;5040339;28;20205;-69
2022/04/19 00:30:07;;;;;;;56.03;30.63;;;10.30;99.90;;;;;;5041992;28;20188;-69
2022/04/19 00:32:37;;;;;;;59.17;31.20;;;10.30;99.90;;;;;;5037381;28;20315;-69
2022/04/19 00:35:08;;;;;;;58.33;31.97;;;10.30;99.90;;;;;;5042889;28;20582;-69
2022/04/19 00:37:39;;;;;;;55.13;30.83;;;10.30;99.90;;;;;;5041589;28;20188;-70
2022/04/19 00:40:09;;;;;;;51.57;29.50;;;10.30;99.90;;;;;;5042220;28;20288;-69
2022/04/19 00:42:38;;;;;;;53.10;29.70;;;10.30;99.90;;;;;;5038265;28;20201;-69
2022/04/19 00:45:08;;;;;;;57.70;30.20;;;10.30;99.90;;;;;;5046506;28;20312;-70
2022/04/19 00:47:38;;;;;;;58.80;31.07;;;10.30;99.90;;;;;;5042321;28;20207;-69
2022/04/19 00:50:08;;;;;;;59.33;32.00;;;10.30;99.90;;;;;;5042520;28;20205;-69
2022/04/19 00:52:38;;;;;;;58.47;32.13;;;10.30;99.90;;;;;;5042622;28;20199;-69
2022/04/19 00:55:08;;;;;;;58.77;32.27;;;10.20;99.90;;;;;;5043302;28;20207;-70
2022/04/19 00:57:38;;;;;;;57.63;31.97;;;10.20;99.90;;;;;;5036528;28;20212;-70
2022/04/19 01:00:09;;;;;;;61.87;32.20;;;10.20;99.90;;;;;;5043416;28;20271;-70
2022/04/19 01:02:40;;;;;;;54.97;32.03;;;10.20;99.90;;;;;;5038641;28;20204;-69
2022/04/19 01:05:09;;;;;;;59.50;32.03;;;10.20;99.90;;;;;;5043031;28;20450;-70
2022/04/19 01:07:39;;;;;;;57.43;31.77;;;10.20;99.90;;;;;;5043623;28;20205;-70
2022/04/19 01:10:09;;;;;;;61.07;32.50;;;10.10;99.90;;;;;;5040923;28;20197;-69
2022/04/19 01:15:23;;;;;;;57.50;32.37;;;10.10;99.90;;;;;;5041486;28;20207;-70
2022/04/19 01:17:53;;;;;;;59.03;31.70;;;10.00;99.90;;;;;;5040899;28;20657;-70
2022/04/19 01:20:22;;;;;;;59.73;32.23;;;10.00;99.90;;;;;;5044484;28;20193;-69
2022/04/19 01:22:52;;;;;;;60.87;34.87;;;10.00;99.90;;;;;;5048055;28;20192;-70
2022/04/19 01:25:20;;;;;;;56.10;31.70;;;10.00;99.90;;;;;;5048038;28;20192;-70
2022/04/19 01:27:48;;;;;;;60.00;33.23;;;10.00;99.90;;;;;;5038053;28;20287;-70
2022/04/19 01:30:19;;;;;;;52.90;32.43;;;10.00;99.90;;;;;;5045668;28;20275;-69
2022/04/19 01:32:47;;;;;;;56.43;32.13;;;10.00;99.90;;;;;;5032833;28;20232;-70
2022/04/19 01:35:18;;;;;;;60.00;33.37;;;10.00;99.90;;;;;;5048266;28;20197;-70
2022/04/19 01:37:48;;;;;;;57.83;32.83;;;10.00;99.90;;;;;;5039581;28;20670;-70
2022/04/19 01:40:18;;;;;;;58.27;33.13;;;10.00;99.90;;;;;;5040112;28;20486;-69
2022/04/19 01:42:48;;;;;;;59.73;33.57;;;9.90;99.90;;;;;;5041711;28;20217;-70
2022/04/19 01:45:18;;;;;;;67.27;35.37;;;9.90;99.90;;;;;;5041639;28;20399;-70
2022/04/19 01:47:46;;;;;;;57.57;32.97;;;9.90;99.90;;;;;;5038219;28;20198;-69
2022/04/19 01:50:17;;;;;;;62.90;33.47;;;9.90;99.90;;;;;;5043053;28;20193;-70
2022/04/19 01:52:46;;;;;;;62.07;34.93;;;9.80;99.90;;;;;;5047815;28;20251;-70
2022/04/19 01:55:18;;;;;;;61.70;36.07;;;9.80;99.90;;;;;;5044617;28;20193;-69
2022/04/19 01:57:49;;;;;;;66.80;37.20;;;9.70;99.90;;;;;;5040437;28;20199;-70
2022/04/19 02:00:18;;;;;;;66.90;37.00;;;9.70;99.90;;;;;;5038513;28;20606;-69
2022/04/19 02:02:47;;;;;;;67.53;36.60;;;9.70;99.90;;;;;;5044732;28;20768;-69
2022/04/19 02:05:16;;;;;;;66.87;37.43;;;9.70;99.90;;;;;;5047929;28;20193;-70
2022/04/19 02:07:46;;;;;;;68.23;37.53;;;9.60;99.90;;;;;;5044054;28;20204;-70
2022/04/19 02:10:16;;;;;;;62.40;37.33;;;9.60;99.90;;;;;;5046624;28;20201;-70
2022/04/19 02:12:46;;;;;;;71.77;38.83;;;9.50;99.90;;;;;;5045210;28;20191;-69
2022/04/19 02:15:16;;;;;;;72.77;39.10;;;9.50;99.90;;;;;;5042481;28;20206;-69
2022/04/19 02:17:46;;;;;;;69.23;38.77;;;9.50;99.90;;;;;;5037982;28;20196;-70
2022/04/19 02:20:16;;;;;;;71.50;39.40;;;9.40;99.90;;;;;;5044972;28;20205;-69
2022/04/19 02:22:45;;;;;;;65.57;37.33;;;9.40;99.90;;;;;;5045507;28;20225;-69
2022/04/19 02:25:15;;;;;;;76.87;39.47;;;9.30;99.90;;;;;;5045996;28;20234;-70
2022/04/19 02:27:44;;;;;;;79.70;40.43;;;9.30;99.90;;;;;;5038510;28;20223;-68
2022/04/19 02:30:15;;;;;;;73.60;40.37;;;9.30;99.90;;;;;;5038209;28;20662;-69
2022/04/19 02:32:45;;;;;;;78.47;41.43;;;9.30;99.90;;;;;;5042563;28;20227;-69
2022/04/19 02:35:15;;;;;;;74.40;40.93;;;9.20;99.90;;;;;;5043337;28;20288;-70
2022/04/19 02:37:49;;;;;;;75.27;41.10;;;9.20;99.90;;;;;;5039971;28;20181;-69
2022/04/19 02:40:18;;;;;;;74.67;42.10;;;9.20;99.90;;;;;;5041042;28;20260;-69
2022/04/19 02:42:47;;;;;;;76.27;41.87;;;9.20;99.90;;;;;;5043248;28;20723;-69
2022/04/19 02:45:19;;;;;;;81.30;42.77;;;9.20;99.90;;;;;;5042662;28;20276;-69
2022/04/19 02:47:48;;;;;;;74.30;41.27;;;9.10;99.90;;;;;;5040984;28;20201;-70
2022/04/19 02:50:16;;;;;;;73.53;40.97;;;9.10;99.90;;;;;;5043001;28;20211;-70
2022/04/19 02:52:45;;;;;;;69.90;40.87;;;9.10;99.90;;;;;;5045929;28;20258;-69
2022/04/19 02:55:13;;;;;;;78.33;44.03;;;9.00;99.90;;;;;;5044135;28;20677;-70
2022/04/19 02:57:42;;;;;;;76.70;40.60;;;9.00;99.90;;;;;;5042377;28;20206;-69
2022/04/19 03:00:11;;;;;;;79.53;43.63;;;8.90;99.90;;;;;;5041453;28;20211;-69
2022/04/19 03:02:41;;;;;;;81.80;43.33;;;8.80;99.90;;;;;;5037368;28;20215;-70
2022/04/19 03:05:10;;;;;;;79.20;41.67;;;8.70;99.90;;;;;;5042313;28;20276;-69
2022/04/19 03:07:38;;;;;;;79.77;43.37;;;8.70;99.90;;;;;;5044075;28;20192;-70
2022/04/19 03:10:07;;;;;;;80.30;42.73;;;8.60;99.90;;;;;;5041253;28;20193;-69
2022/04/19 03:12:36;;;;;;;82.77;43.43;;;8.60;99.90;;;;;;5038813;28;21735;-69
2022/04/19 03:15:04;;;;;;;87.17;44.63;;;8.60;99.90;;;;;;5044915;28;20201;-70
2022/04/19 03:17:34;;;;;;;78.57;42.40;;;8.50;99.90;;;;;;5044879;28;20200;-70
2022/04/19 03:20:07;;;;;;;81.43;44.00;;;8.50;99.90;;;;;;5033164;28;20609;-69
2022/04/19 03:28:09;;;;;;;88.97;44.73;;;8.20;99.90;;;;;;5041900;28;20211;-69
2022/04/19 03:30:38;;;;;;;87.03;44.83;;;8.20;99.90;;;;;;5045318;28;20204;-69
2022/04/19 03:33:07;;;;;;;92.87;46.80;;;8.10;99.90;;;;;;5040777;28;22341;-70
2022/04/19 03:35:36;;;;;;;88.67;46.27;;;8.10;99.90;;;;;;5046793;28;20296;-70
2022/04/19 03:38:06;;;;;;;87.63;46.37;;;8.10;99.90;;;;;;5039737;28;20297;-69
2022/04/19 03:40:34;;;;;;;91.03;47.20;;;8.00;99.90;;;;;;5043841;28;20237;-70
2022/04/19 03:43:02;;;;;;;86.60;45.17;;;8.00;99.90;;;;;;5038128;28;20772;-69
2022/04/19 03:45:31;;;;;;;90.00;45.57;;;7.90;99.90;;;;;;5042003;28;20192;-70
2022/04/19 03:48:00;;;;;;;90.60;46.93;;;7.80;99.90;;;;;;5042538;28;20207;-69
2022/04/19 03:50:28;;;;;;;82.33;45.47;;;7.80;99.90;;;;;;5027954;28;20728;-69
2022/04/19 03:52:58;;;;;;;91.40;47.40;;;7.80;99.90;;;;;;5042882;28;20558;-70
2022/04/19 03:55:26;;;;;;;101.97;48.23;;;7.70;99.90;;;;;;5037866;28;20200;-69
2022/04/19 03:57:54;;;;;;;91.37;48.23;;;7.80;99.90;;;;;;5040634;28;20217;-70
2022/04/19 04:00:23;;;;;;;101.53;49.57;;;7.70;99.90;;;;;;5042861;28;20197;-70
2022/04/19 04:03:12;;;;;;;99.70;49.63;;;7.70;99.90;;;;;;5040654;28;20208;-70
2022/04/19 04:05:41;;;;;;;90.13;47.23;;;7.70;99.90;;;;;;5044315;28;20199;-70
2022/04/19 04:08:10;;;;;;;104.43;50.20;;;7.70;99.90;;;;;;5044714;28;20703;-69
2022/04/19 04:10:38;;;;;;;98.17;49.53;;;7.70;99.90;;;;;;5042204;28;20210;-70
2022/04/19 04:13:07;;;;;;;92.50;48.37;;;7.70;99.90;;;;;;5042286;28;20199;-69
2022/04/19 04:15:35;;;;;;;89.83;48.77;;;7.70;99.90;;;;;;5044561;28;20206;-70
2022/04/19 04:18:04;;;;;;;91.40;48.30;;;7.60;99.90;;;;;;5039024;28;20331;-69
2022/04/19 04:20:33;;;;;;;93.63;47.20;;;7.60;99.90;;;;;;5043438;28;20193;-70
2022/04/19 04:23:01;;;;;;;90.40;46.40;;;7.50;99.90;;;;;;5042399;28;20220;-70
2022/04/19 04:25:31;;;;;;;90.17;47.73;;;7.50;99.90;;;;;;5036596;28;20219;-70
2022/04/19 04:28:00;;;;;;;95.93;48.53;;;7.40;99.90;;;;;;5037720;28;20333;-70
2022/04/19 04:30:28;;;;;;;96.97;49.57;;;7.40;99.90;;;;;;5038454;28;20244;-70
2022/04/19 04:32:57;;;;;;;88.60;46.07;;;7.40;99.90;;;;;;5041849;28;20362;-70
2022/04/19 04:35:25;;;;;;;92.83;48.77;;;7.30;99.90;;;;;;5043276;28;20258;-70
2022/04/19 04:37:53;;;;;;;92.57;47.27;;;7.30;99.90;;;;;;5045311;28;20231;-70
2022/04/19 04:40:22;;;;;;;94.43;48.60;;;7.30;99.90;;;;;;5042120;28;20203;-70
2022/04/19 04:42:52;;;;;;;100.43;49.97;;;7.30;99.90;;;;;;5036336;28;20245;-70
2022/04/19 04:45:20;;;;;;;103.47;52.30;;;7.30;99.90;;;;;;5039786;28;20208;-70
2022/04/19 04:50:35;;;;;;;101.87;53.00;;;7.30;99.90;;;;;;5042495;28;20200;-70
2022/04/19 04:53:04;;;;;;;104.47;52.13;;;7.30;99.90;;;;;;5033263;28;20196;-70
2022/04/19 04:55:32;;;;;;;101.70;52.30;;;7.30;99.90;;;;;;5044290;28;20243;-71
2022/04/19 04:58:02;;;;;;;113.73;56.20;;;7.30;99.90;;;;;;5036117;28;20235;-70
2022/04/19 05:00:31;;;;;;;110.13;54.03;;;7.40;99.90;;;;;;5046182;28;20276;-70
2022/04/19 05:02:59;;;;;;;102.83;52.80;;;7.40;99.90;;;;;;5038527;28;20221;-70
2022/04/19 05:05:28;;;;;;;97.13;50.47;;;7.40;99.90;;;;;;5043297;28;20205;-70
2022/04/19 05:07:56;;;;;;;99.77;49.53;;;7.40;99.90;;;;;;5047544;28;20216;-70
2022/04/19 05:10:25;;;;;;;101.17;51.57;;;7.40;99.90;;;;;;5040806;28;20223;-70
2022/04/19 05:12:53;;;;;;;102.93;49.20;;;7.50;99.90;;;;;;5048042;28;20618;-70
2022/04/19 05:15:23;;;;;;;110.43;52.97;;;7.50;99.90;;;;;;5041663;28;20201;-70
2022/04/19 05:17:52;;;;;;;111.37;56.87;;;7.60;99.90;;;;;;5047430;28;20244;-70
2022/04/19 05:20:20;;;;;;;117.27;57.67;;;7.70;99.90;;;;;;5044025;28;20219;-70
2022/04/19 05:22:48;;;;;;;113.43;56.57;;;7.70;99.90;;;;;;5045297;28;20235;-70
2022/04/19 05:25:17;;;;;;;107.53;55.00;;;7.80;99.90;;;;;;5041209;28;20225;-70
2022/04/19 05:27:45;;;;;;;108.70;55.57;;;8.00;99.90;;;;;;5022771;28;20197;-70
2022/04/19 05:30:14;;;;;;;104.23;53.03;;;8.10;99.90;;;;;;5041231;28;20204;-70
2022/04/19 05:32:44;;;;;;;104.53;53.53;;;8.20;99.90;;;;;;5042963;28;20236;-70
2022/04/19 05:35:15;;;;;;;101.50;52.37;;;8.30;99.90;;;;;;5041664;28;20704;-72
2022/04/19 05:37:45;;;;;;;108.37;53.93;;;8.50;99.90;;;;;;5044336;28;20196;-70
2022/04/19 05:40:14;;;;;;;92.33;50.27;;;8.60;99.90;;;;;;5025575;28;20186;-70
2022/04/19 05:42:42;;;;;;;93.17;51.00;;;8.90;99.90;;;;;;5043345;28;20207;-70
2022/04/19 05:45:11;;;;;;;97.53;49.87;;;9.00;99.90;;;;;;5044094;28;20296;-70
2022/04/19 05:47:39;;;;;;;89.67;47.83;;;9.20;99.90;;;;;;5043250;28;20199;-70
2022/04/19 05:50:10;;;;;;;85.70;47.33;;;9.30;99.90;;;;;;5040337;28;20208;-69
2022/04/19 05:52:39;;;;;;;85.77;47.33;;;9.50;99.90;;;;;;5048326;28;20235;-70
2022/04/19 05:55:08;;;;;;;82.03;45.20;;;9.70;99.90;;;;;;5046469;28;20262;-70
2022/04/19 05:57:37;;;;;;;81.03;45.13;;;10.10;99.90;;;;;;5043398;28;20197;-70
2022/04/19 06:00:07;;;;;;;74.97;43.20;;;10.40;99.90;;;;;;5048009;28;20200;-70
2022/04/19 06:05:26;;;;;;;69.63;40.70;;;11.00;99.90;;;;;;5042190;28;20200;-70
2022/04/19 06:07:54;;;;;;;64.63;38.50;;;11.40;99.90;;;;;;5047363;28;20197;-70
2022/04/19 06:10:23;;;;;;;62.80;37.97;;;11.70;99.90;;;;;;5045338;28;20285;-70
2022/04/19 06:12:51;;;;;;;63.50;37.83;;;12.10;99.90;;;;;;5048321;28;20201;-70
2022/04/19 06:15:20;;;;;;;64.47;37.10;;;12.40;99.90;;;;;;5048617;28;20188;-70
2022/04/19 06:17:48;;;;;;;61.23;36.57;;;12.70;99.90;;;;;;5044251;28;20251;-69
2022/04/19 06:20:17;;;;;;;60.70;36.20;;;12.90;99.90;;;;;;5049342;28;20279;-71
2022/04/19 06:22:46;;;;;;;62.87;37.00;;;13.00;99.90;;;;;;5043800;28;20200;-71
2022/04/19 06:25:15;;;;;;;71.47;35.30;;;13.10;99.90;;;;;;5046179;28;20228;-70
2022/04/19 06:27:43;;;;;;;61.43;37.10;;;13.20;99.90;;;;;;5048858;28;20586;-71
2022/04/19 06:30:12;;;;;;;68.20;36.90;;;13.30;99.90;;;;;;5049329;28;20200;-70
2022/04/19 06:32:42;;;;;;;70.60;37.27;;;13.30;99.90;;;;;;5044912;28;20247;-69
2022/04/19 06:35:10;;;;;;;61.33;37.10;;;13.20;99.90;;;;;;5041162;28;20185;-70
2022/04/19 06:37:39;;;;;;;60.60;35.77;;;13.10;99.90;;;;;;5047484;28;20192;-70
2022/04/19 06:40:10;;;;;;;52.03;33.67;;;13.10;99.90;;;;;;5042012;28;20252;-69
2022/04/19 06:42:39;;;;;;;57.90;34.90;;;13.10;99.90;;;;;;5045500;28;20203;-70
2022/04/19 06:45:08;;;;;;;51.47;33.53;;;13.20;99.90;;;;;;5046180;28;20215;-69
2022/04/19 06:47:37;;;;;;;57.30;35.60;;;13.30;99.90;;;;;;5049505;28;20193;-70
2022/04/19 06:50:06;;;;;;;57.90;35.73;;;13.40;99.90;;;;;;5048755;28;20220;-69
2022/04/19 06:52:35;;;;;;;54.57;33.00;;;13.30;99.90;;;;;;5044930;28;20213;-70
2022/04/19 06:55:04;;;;;;;58.17;34.10;;;13.30;99.90;;;;;;5043272;28;20185;-70
2022/04/19 06:57:39;;;;;;;52.77;35.17;;;13.40;99.90;;;;;;5044282;28;20220;-70
2022/04/19 07:00:08;;;;;;;53.23;34.37;;;13.40;99.90;;;;;;5048096;28;20294;-69
2022/04/19 07:02:37;;;;;;;53.87;33.63;;;13.40;99.90;;;;;;5044300;28;20627;-70
2022/04/19 07:05:06;;;;;;;53.23;33.23;;;13.40;99.90;;;;;;5048341;28;20239;-70
2022/04/19 07:07:34;;;;;;;57.50;34.93;;;13.50;99.90;;;;;;5047680;28;20557;-70
2022/04/19 07:10:03;;;;;;;55.80;35.07;;;13.70;99.90;;;;;;5044713;28;20385;-70
2022/04/19 07:12:33;;;;;;;53.33;33.30;;;13.80;99.90;;;;;;5048186;28;20238;-70
2022/04/19 07:15:03;;;;;;;52.40;34.03;;;13.90;99.90;;;;;;5045535;28;20188;-70
2022/04/19 07:17:32;;;;;;;52.23;34.23;;;13.90;99.90;;;;;;5041158;28;20734;-70
2022/04/19 07:28:18;;;;;;;56.83;36.07;;;14.20;99.90;;;;;;5048984;28;20239;-69
2022/04/19 07:30:48;;;;;;;55.97;35.70;;;14.00;99.90;;;;;;5046842;28;20191;-70
2022/04/19 07:33:17;;;;;;;57.70;35.83;;;14.00;99.90;;;;;;5048285;28;20232;-69
2022/04/19 07:35:46;;;;;;;63.27;36.80;;;14.00;99.90;;;;;;5048058;28;20209;-69
2022/04/19 07:38:15;;;;;;;56.00;35.13;;;14.10;99.90;;;;;;5037690;28;20714;-69
2022/04/19 07:40:45;;;;;;;59.93;35.67;;;14.30;99.90;;;;;;5048465;28;20666;-69
2022/04/19 07:43:14;;;;;;;61.67;35.63;;;14.40;99.90;;;;;;5045276;28;20655;-69
2022/04/19 07:45:42;;;;;;;55.67;34.23;;;14.50;99.90;;;;;;5047200;28;20682;-70
2022/04/19 07:48:12;;;;;;;54.07;34.97;;;14.50;99.90;;;;;;5047437;28;20827;-69
2022/04/19 07:50:40;;;;;;;54.97;34.60;;;14.60;99.90;;;;;;5046621;28;20208;-69
2022/04/19 07:53:09;;;;;;;59.43;36.30;;;14.60;99.90;;;;;;5041171;28;20718;-70
2022/04/19 07:55:37;;;;;;;51.87;33.63;;;14.60;99.90;;;;;;5048080;28;20250;-69
2022/04/19 07:58:06;;;;;;;56.20;35.77;;;14.60;99.90;;;;;;5048127;28;20193;-69
2022/04/19 08:00:35;;;;;;;55.67;33.63;;;14.70;99.90;;;;;;5048449;28;20207;-69
2022/04/19 08:03:03;;;;;;;51.97;33.30;;;14.80;99.90;;;;;;5039277;28;20706;-69
2022/04/19 08:05:35;;;;;;;58.67;34.33;;;14.80;99.90;;;;;;5045103;28;20205;-69
2022/04/19 08:08:03;;;;;;;52.27;34.17;;;14.90;99.90;;;;;;5045119;28;20283;-69
2022/04/19 08:10:32;;;;;;;50.43;33.13;;;14.90;99.90;;;;;;5047570;28;20623;-69
2022/04/19 08:13:01;;;;;;;50.90;34.77;;;14.90;99.90;;;;;;5046646;28;20196;-69
2022/04/19 08:15:29;;;;;;;51.20;33.90;;;15.00;99.90;;;;;;5045581;28;20602;-69
2022/04/19 08:17:57;;;;;;;49.43;33.03;;;15.10;99.90;;;;;;5047671;28;20205;-69
2022/04/19 08:20:26;;;;;;;48.53;33.03;;;15.30;99.90;;;;;;5037824;28;20654;-69
2022/04/19 08:22:56;;;;;;;48.77;32.63;;;15.40;99.90;;;;;;5043380;28;20215;-68
2022/04/19 08:25:24;;;;;;;50.10;33.23;;;15.60;99.90;;;;;;5043330;28;20223;-69
2022/04/19 08:27:52;;;;;;;50.20;31.97;;;16.00;99.90;;;;;;5042665;28;20204;-69
2022/04/19 08:30:21;;;;;;;45.20;30.97;;;16.30;99.90;;;;;;5052624;28;20203;-70
2022/04/19 08:32:49;;;;;;;51.33;32.27;;;16.60;99.90;;;;;;5047447;28;20232;-68
2022/04/19 08:35:18;;;;;;;42.03;29.90;;;16.80;99.90;;;;;;5048643;28;20697;-69
2022/04/19 08:37:46;;;;;;;44.53;30.43;;;17.30;99.90;;;;;;5048725;28;20200;-69
2022/04/19 08:40:17;;;;;;;43.33;31.00;;;17.60;99.90;;;;;;5046180;28;20670;-69
2022/04/19 08:42:46;;;;;;;40.30;28.07;;;17.70;99.90;;;;;;5049268;28;20207;-70
2022/04/19 08:45:16;;;;;;;33.03;24.40;;;17.90;99.90;;;;;;5051001;28;20224;-69
2022/04/19 08:47:46;;;;;;;40.90;26.67;;;18.10;99.90;;;;;;5050637;28;20238;-69
2022/04/19 08:50:16;;;;;;;35.67;25.87;;;18.30;99.90;;;;;;5047100;28;20235;-69
2022/04/19 08:52:45;;;;;;;40.67;27.80;;;18.40;99.90;;;;;;5047050;28;20286;-69
2022/04/19 08:58:05;;;;;;;33.13;24.03;;;18.50;99.90;;;;;;5040471;28;20196;-69
2022/04/19 09:00:33;;;;;;;41.03;25.90;;;18.40;99.90;;;;;;5049315;28;20653;-69
2022/04/19 09:03:02;;;;;;;38.03;27.00;;;18.40;99.90;;;;;;5050430;28;20204;-69
2022/04/19 09:05:31;;;;;;;37.63;26.00;;;18.40;99.90;;;;;;5051634;28;20682;-69
2022/04/19 09:08:00;;;;;;;34.13;25.13;;;18.50;99.90;;;;;;5044828;28;20200;-69
2022/04/19 09:10:30;;;;;;;40.00;25.77;;;18.60;99.90;;;;;;5049040;28;20262;-69
2022/04/19 09:13:04;;;;;;;31.17;23.37;;;18.70;99.90;;;;;;5051098;28;20208;-69
2022/04/19 09:15:34;;;;;;;30.30;23.37;;;18.70;99.90;;;;;;5050965;28;20258;-70
2022/04/19 09:18:03;;;;;;;31.87;22.67;;;18.80;99.90;;;;;;5049025;28;20250;-68
2022/04/19 09:20:32;;;;;;;32.50;21.80;;;19.10;99.90;;;;;;5048637;28;20209;-68
2022/04/19 09:23:03;;;;;;;29.97;21.30;;;19.40;99.90;;;;;;5047289;28;20203;-68
2022/04/19 09:25:32;;;;;;;27.63;20.23;;;19.60;99.90;;;;;;5048214;28;20235;-68
2022/04/19 09:28:15;;;;;;;26.13;20.87;;;19.70;99.90;;;;;;5044962;28;20303;-68
2022/04/19 09:30:44;;;;;;;26.67;21.50;;;20.00;99.90;;;;;;5043339;28;20659;-68
2022/04/19 09:33:14;;;;;;;28.47;21.53;;;20.40;99.90;;;;;;5050533;28;20241;-68
2022/04/19 09:35:44;;;;;;;29.00;21.23;;;20.80;99.90;;;;;;5049497;28;20199;-68
2022/04/19 09:38:14;;;;;;;28.20;21.40;;;21.10;99.90;;;;;;5047810;28;20252;-68
2022/04/19 09:40:44;;;;;;;25.60;19.77;;;21.20;99.90;;;;;;5047939;28;20192;-68
2022/04/19 09:43:16;;;;;;;25.37;20.00;;;21.70;99.90;;;;;;5048645;28;20199;-68
2022/04/19 09:45:54;;;;;;;26.50;20.87;;;21.80;99.90;;;;;;5046113;28;20223;-68
2022/04/19 09:48:24;;;;;;;27.47;20.07;;;22.20;99.90;;;;;;5049526;28;20199;-68
2022/04/19 09:50:58;;;;;;;25.70;20.17;;;22.50;99.90;;;;;;5050967;28;20200;-68
2022/04/19 09:53:28;;;;;;;22.83;18.83;;;22.70;99.90;;;;;;5047735;28;20201;-68
2022/04/19 09:55:58;;;;;;;26.87;18.27;;;22.80;99.90;;;;;;5050910;28;20200;-68
2022/04/19 09:58:29;;;;;;;23.75;19.38;;;22.90;99.90;;;;;;5050537;28;20202;-68
2022/04/19 10:00:58;;;;;;;26.80;19.30;;;23.10;99.90;;;;;;5049408;28;20205;-68
2022/04/19 10:09:19;;;;;;;23.73;18.60;;;22.50;99.90;;;;;;4955299;28;20638;-68
2022/04/19 10:11:48;;;;;;;23.73;18.50;;;22.50;99.90;;;;;;5024402;28;20209;-68
2022/04/19 10:14:18;;;;;;;25.07;19.53;;;22.60;99.90;;;;;;5046391;28;20201;-68
2022/04/19 10:16:48;;;;;;;22.83;18.70;;;22.50;99.60;;;;;;5047130;28;20209;-68
2022/04/19 10:19:18;;;;;;;23.77;19.50;;;22.40;99.90;;;;;;5048648;28;20251;-68
2022/04/19 10:21:49;;;;;;;24.80;19.67;;;22.50;99.90;;;;;;5047087;28;20209;-68
2022/04/19 10:24:19;;;;;;;27.07;19.57;;;22.40;99.60;;;;;;5044938;28;20651;-68
2022/04/19 10:26:49;;;;;;;28.07;19.10;;;22.50;99.80;;;;;;5045710;28;20223;-68
2022/04/19 10:29:22;;;;;;;28.90;19.57;;;22.50;99.90;;;;;;5047539;28;20193;-68
2022/04/19 10:31:59;;;;;;;26.37;19.03;;;22.50;99.70;;;;;;5048942;28;20225;-68
2022/04/19 10:34:29;;;;;;;27.83;17.57;;;22.60;99.40;;;;;;5045128;28;20267;-68
2022/04/19 10:37:19;;;;;;;27.77;19.20;;;22.70;99.30;;;;;;5046778;28;20284;-68
2022/04/19 10:39:49;;;;;;;23.47;17.23;;;22.70;98.90;;;;;;5042555;28;20334;-68
2022/04/19 10:42:29;;;;;;;22.23;16.47;;;22.50;97.60;;;;;;5047543;28;20204;-68
2022/04/19 10:44:59;;;;;;;26.80;17.57;;;22.40;96.60;;;;;;5046457;28;20296;-68
2022/04/19 10:47:28;;;;;;;24.97;17.23;;;22.30;98.30;;;;;;5048720;28;20222;-68
2022/04/19 10:49:59;;;;;;;24.17;17.40;;;22.50;97.60;;;;;;5046820;28;20203;-68
2022/04/19 10:52:50;;;;;;;27.20;17.40;;;22.60;98.10;;;;;;5043298;28;20197;-68
2022/04/19 10:55:26;;;;;;;25.10;17.60;;;22.50;97.30;;;;;;5047890;28;20295;-68
2022/04/19 10:58:08;;;;;;;20.67;16.30;;;22.40;97.80;;;;;;5046464;28;20204;-67
2022/04/19 11:00:45;;;;;;;30.27;17.00;;;22.50;97.50;;;;;;5046351;28;20201;-68
2022/04/19 11:03:47;;;;;;;25.63;16.10;;;22.60;97.30;;;;;;5044777;28;20197;-68
2022/04/19 11:06:33;;;;;;;26.87;16.67;;;22.80;97.30;;;;;;5047319;28;20384;-68
2022/04/19 11:09:10;;;;;;;20.10;15.50;;;22.70;96.40;;;;;;5033324;28;20207;-68
2022/04/19 11:11:46;;;;;;;21.77;16.07;;;22.70;96.70;;;;;;5048382;28;20195;-68
2022/04/19 11:14:22;;;;;;;22.40;16.83;;;22.90;97.00;;;;;;5047115;28;20192;-68
2022/04/19 11:16:54;;;;;;;25.13;15.93;;;22.80;95.60;;;;;;5043558;28;20194;-68
2022/04/19 11:19:25;;;;;;;23.13;16.40;;;22.60;96.20;;;;;;5045040;28;20209;-68
2022/04/19 11:21:57;;;;;;;20.80;15.40;;;22.70;96.70;;;;;;5044993;28;20209;-68
2022/04/19 11:25:00;;;;;;;20.47;15.53;;;22.90;96.30;;;;;;5045805;28;20254;-68
2022/04/19 11:28:09;;;;;;;21.67;14.07;;;22.90;95.00;;;;;;5042153;28;20561;-67
2022/04/19 11:30:38;;;;;;;25.20;15.30;;;22.80;95.20;;;;;;5045823;28;20199;-67
2022/04/19 11:33:08;;;;;;;9.03;7.67;;;22.70;95.40;;;;;;5044676;28;20238;-68
2022/04/19 11:35:36;;;;;;;6.97;6.27;;;22.50;89.40;;;;;;5048625;28;20255;-67
2022/04/19 11:38:09;;;;;;;9.73;6.33;;;22.40;84.30;;;;;;5044158;28;20208;-67
2022/04/19 11:49:36;;;;;;;6.43;5.57;;;22.00;75.90;;;;;;5005127;28;20202;-67
2022/04/19 11:52:11;;;;;;;7.23;5.10;;;21.80;77.20;;;;;;5037536;28;20785;-67
2022/04/19 11:54:40;;;;;;;6.47;5.27;;;22.00;78.20;;;;;;5047579;28;20639;-67
2022/04/19 11:57:10;;;;;;;8.40;5.70;;;21.80;77.50;;;;;;5046254;28;20661;-67
2022/04/19 11:59:40;;;;;;;10.50;6.40;;;21.80;77.20;;;;;;5047459;28;20548;-67
2022/04/19 12:02:16;;;;;;;9.37;6.00;;;21.70;76.40;;;;;;5046863;28;20570;-67
2022/04/19 12:04:52;;;;;;;7.00;6.07;;;21.60;78.40;;;;;;5048363;28;20199;-67
2022/04/19 12:07:20;;;;;;;7.63;6.33;;;21.60;74.30;;;;;;5044764;28;20214;-67
2022/04/19 12:09:51;;;;;;;7.73;6.60;;;21.40;75.00;;;;;;5047581;28;20630;-67
2022/04/19 12:12:20;;;;;;;8.37;6.90;;;21.60;74.60;;;;;;5046155;28;20197;-67
2022/04/19 12:14:53;;;;;;;9.53;6.60;;;21.70;77.20;;;;;;5048406;28;20254;-67
2022/04/19 12:17:25;;;;;;;6.80;6.10;;;21.80;74.10;;;;;;5039728;28;20227;-67
2022/04/19 12:20:03;;;;;;;7.33;6.03;;;21.60;74.00;;;;;;5048239;28;20662;-67
2022/04/19 12:22:35;;;;;;;7.47;6.53;;;21.40;70.80;;;;;;5045666;28;20943;-67
2022/04/19 12:25:05;;;;;;;9.03;5.70;;;21.40;73.00;;;;;;5046163;28;20208;-67
2022/04/19 12:27:35;;;;;;;7.50;6.50;;;21.50;76.00;;;;;;5045158;28;20612;-67
2022/04/19 12:30:08;;;;;;;10.37;7.13;;;21.70;76.90;;;;;;5043828;28;20280;-67
2022/04/19 12:32:51;;;;;;;9.50;6.67;;;21.50;77.00;;;;;;5045901;28;20232;-67
2022/04/19 12:35:24;;;;;;;12.80;7.40;;;21.60;76.10;;;;;;5047345;28;20203;-67
2022/04/19 12:38:07;;;;;;;10.50;6.90;;;21.50;78.30;;;;;;5043327;28;20200;-67
2022/04/19 12:40:35;;;;;;;9.47;6.60;;;21.60;79.50;;;;;;5046777;28;20202;-67
2022/04/19 12:43:04;;;;;;;10.10;6.40;;;21.90;78.10;;;;;;5045463;28;20673;-67
2022/04/19 12:45:33;;;;;;;6.70;6.00;;;22.10;78.70;;;;;;5048313;28;20694;-67
2022/04/19 12:48:02;;;;;;;10.07;8.07;;;22.30;79.10;;;;;;5041183;28;20215;-69
2022/04/19 12:50:32;;;;;;;8.33;7.00;;;22.30;75.70;;;;;;5043455;28;20563;-67
2022/04/19 12:53:02;;;;;;;10.63;7.83;;;21.80;76.50;;;;;;5046684;28;20201;-68
2022/04/19 12:55:31;;;;;;;10.93;7.23;;;21.70;75.90;;;;;;5041667;28;20193;-67
2022/04/19 12:58:09;;;;;;;14.27;6.97;;;21.50;80.20;;;;;;5046970;28;20228;-67
2022/04/19 13:00:38;;;;;;;9.33;7.43;;;21.90;81.40;;;;;;5044078;28;20204;-67
2022/04/19 13:03:07;;;;;;;10.47;7.23;;;22.20;77.90;;;;;;5044906;28;20200;-67
2022/04/19 13:13:54;;;;;;;12.60;7.87;;;22.50;79.00;;;;;;5046110;28;20200;-67
2022/04/19 13:16:23;;;;;;;8.33;6.73;;;22.10;75.70;;;;;;5048195;28;20201;-67
2022/04/19 13:18:52;;;;;;;12.07;7.43;;;22.00;78.40;;;;;;5050677;28;20201;-67
2022/04/19 13:21:24;;;;;;;10.77;7.00;;;22.20;79.10;;;;;;5047528;28;20280;-67
2022/04/19 13:24:04;;;;;;;8.40;6.77;;;22.00;78.20;;;;;;5047572;28;20246;-67
2022/04/19 13:26:34;;;;;;;8.63;7.03;;;21.90;81.60;;;;;;5042858;28;20678;-67
2022/04/19 13:29:07;;;;;;;10.10;6.70;;;22.10;78.70;;;;;;5049122;28;20215;-67
2022/04/19 13:31:38;;;;;;;7.40;5.90;;;22.10;78.80;;;;;;5044715;28;20192;-67
2022/04/19 13:34:07;;;;;;;10.73;5.50;;;22.20;78.30;;;;;;5050054;28;20232;-67